aviador You're here:

OIGG Decoded Metar

RASHT in IRAN
Report Time2018-02-20 13:30:00
UTC Time2018-02-20 13:51:45
Flight Rules vfr VFR
Wind090° at 06 kt
W.Decomp.*RWY 09: 6.0 kt HW 0.4 kt LCW
W.Rank090° ranks 11
Current wind is above 090° avg. (5.5)
Visibility9999 m
Phenomena:N/A
Clouds:Few 090 Hf
Expected CloudBase > 2,000 ft AGL from Temp-Dew spread
CeilingNone
Temp12°C (ISA -3)
Dew Point07°C (72% RH)
AAT9.2°C
QNH1018 hPa
Density Alt-443 ft
Elevation-43 ft
Report Wrong Elevation
Raw Report
OIGG 201330Z 09006KT 9999 FEW090 12/07 Q1018=

Extra information for OIGG:More info

Metar Taf Metar & Taf Last 4 Metars F.Rules Stats Wind Profile Meteogram Temp Stats Airport Information Weather charts Add Link Nearby VenuesMetar ALERT Operation Metar Decoded Social comments